Terminal Aerodrome Forecast
Issued by NWS Caribou, ME

Home | Current Version | Previous Version | Text Only | Print | Product List | Glossary On
Versions: 1 2 3 4 5 6 7 8 9 10 11 12 13 14 15 16 17 18
000
FTUS41 KCAR 040844 AAA
TAFCAR
TAF AMD
KCAR 040844Z 0409/0506 22004KT P6SM SCT150
      TEMPO 0409/0411 3/4SM BR OVC002
     FM041600 19006KT P6SM BKN050
     FM041800 23007KT P6SM VCSH BKN040 OVC070=

USA.gov is the U.S. government's official web portal to all federal, state and local government web resources and services.